createdAt,value
2023-01-27T00:00:55.001Z,0.80
2023-01-27T00:03:22.782Z,0.90
2023-01-27T00:05:50.280Z,0.90
2023-01-27T00:08:18.081Z,0.90
2023-01-27T00:10:45.025Z,0.73
2023-01-27T00:13:27.184Z,0.65
2023-01-27T00:15:54.846Z,0.60
2023-01-27T00:18:23.706Z,0.60
2023-01-27T00:21:09.511Z,0.70
2023-01-27T00:23:55.421Z,0.47
2023-01-27T00:26:22.491Z,0.73
2023-01-27T00:28:49.451Z,0.85
2023-01-27T00:31:36.306Z,0.60
2023-01-27T00:34:09.389Z,0.85
2023-01-27T00:36:41.852Z,0.70
2023-01-27T00:39:11.037Z,0.95
2023-01-27T00:41:38.148Z,1.00
2023-01-27T00:44:13.071Z,0.73
2023-01-27T00:46:40.531Z,0.93
2023-01-27T00:49:07.753Z,1.33
2023-01-27T00:51:36.548Z,1.00
2023-01-27T00:54:03.630Z,1.05
2023-01-27T00:56:30.537Z,0.73
2023-01-27T00:58:57.564Z,0.70
2023-01-27T01:01:24.621Z,0.85
2023-01-27T01:03:51.860Z,0.60
2023-01-27T01:06:20.213Z,0.60
2023-01-27T01:08:48.581Z,0.70
2023-01-27T01:11:17.263Z,0.40
2023-01-27T01:13:44.828Z,0.32
2023-01-27T01:16:18.318Z,0.30
2023-01-27T01:18:45.582Z,0.50
2023-01-27T01:21:13.063Z,0.40
2023-01-27T01:23:45.129Z,0.85
2023-01-27T01:26:14.494Z,0.52
2023-01-27T01:28:41.512Z,1.02
2023-01-27T01:31:12.885Z,0.80
2023-01-27T01:33:39.909Z,0.77
2023-01-27T01:36:07.640Z,0.80
2023-01-27T01:38:34.696Z,0.60
2023-01-27T01:41:01.737Z,0.63
2023-01-27T01:43:28.708Z,0.60
2023-01-27T01:45:57.874Z,0.40
2023-01-27T01:48:30.047Z,0.88
2023-01-27T01:51:11.249Z,0.30
2023-01-27T01:54:01.130Z,0.70
2023-01-27T01:56:36.520Z,0.63
2023-01-27T01:59:09.604Z,0.43
2023-01-27T02:01:36.654Z,0.38
2023-01-27T02:04:08.948Z,0.70
2023-01-27T02:06:44.978Z,0.63
2023-01-27T02:09:12.250Z,0.93
2023-01-27T02:11:39.149Z,1.20
2023-01-27T02:14:06.130Z,0.60
2023-01-27T02:16:33.621Z,1.40
2023-01-27T02:19:00.591Z,0.57
2023-01-27T02:21:27.513Z,0.50
2023-01-27T02:24:02.152Z,0.60
2023-01-27T02:26:32.059Z,0.40
2023-01-27T02:29:02.987Z,0.43
2023-01-27T02:31:30.124Z,0.40
2023-01-27T02:34:01.784Z,0.68
2023-01-27T02:36:31.747Z,0.60
2023-01-27T02:39:01.067Z,0.45
2023-01-27T02:41:34.299Z,0.60
2023-01-27T02:44:01.332Z,0.60
2023-01-27T02:46:28.858Z,0.70
2023-01-27T02:48:55.863Z,0.60
2023-01-27T02:51:23.193Z,0.60
2023-01-27T02:53:50.229Z,1.00
2023-01-27T02:56:17.144Z,0.88
2023-01-27T02:58:44.071Z,0.75
2023-01-27T03:01:11.333Z,1.08
2023-01-27T03:03:44.303Z,0.40
2023-01-27T03:06:11.563Z,0.60
2023-01-27T03:08:38.460Z,0.50
2023-01-27T03:11:05.798Z,0.70
2023-01-27T03:13:32.798Z,0.30
2023-01-27T03:16:19.729Z,0.47
2023-01-27T03:18:49.783Z,0.57
2023-01-27T03:21:19.947Z,0.60
2023-01-27T03:23:49.275Z,0.32
2023-01-27T03:26:16.608Z,0.60
2023-01-27T03:28:43.601Z,0.43
2023-01-27T03:31:19.724Z,0.40
2023-01-27T03:33:47.823Z,0.20
2023-01-27T03:36:34.183Z,0.60
2023-01-27T03:39:19.705Z,0.70
2023-01-27T03:42:05.428Z,0.43
2023-01-27T03:44:50.707Z,0.70
2023-01-27T03:47:17.629Z,0.80
2023-01-27T03:49:44.625Z,0.60
2023-01-27T03:52:11.521Z,0.73
2023-01-27T03:54:38.585Z,0.47
2023-01-27T03:57:06.473Z,0.82
2023-01-27T03:59:33.681Z,1.58
2023-01-27T04:02:20.382Z,0.38
2023-01-27T04:05:06.377Z,0.38
2023-01-27T04:07:36.760Z,0.90
2023-01-27T04:10:05.244Z,1.00
2023-01-27T04:12:32.513Z,0.45
2023-01-27T04:14:59.481Z,0.70
2023-01-27T04:17:26.370Z,0.70
2023-01-27T04:19:53.302Z,0.47
2023-01-27T04:22:20.303Z,0.88
2023-01-27T04:24:47.216Z,0.43
2023-01-27T04:27:15.756Z,0.40
2023-01-27T04:29:43.002Z,0.30
2023-01-27T04:32:12.410Z,0.30
2023-01-27T04:34:40.436Z,0.40
2023-01-27T04:37:08.576Z,0.20
2023-01-27T04:39:35.908Z,0.50
2023-01-27T04:42:03.099Z,0.45
2023-01-27T04:44:30.502Z,0.73
2023-01-27T04:46:57.446Z,0.60
2023-01-27T04:49:26.764Z,0.50
2023-01-27T04:51:54.316Z,0.40
2023-01-27T04:54:21.599Z,2.15
2023-01-27T04:57:14.748Z,0.25
2023-01-27T04:59:41.622Z,0.60
2023-01-27T05:02:08.524Z,0.30
2023-01-27T05:04:35.455Z,0.70
2023-01-27T05:07:02.542Z,0.85
2023-01-27T05:09:29.411Z,0.15
2023-01-27T05:11:56.314Z,0.28
2023-01-27T05:14:23.747Z,0.30
2023-01-27T05:16:50.895Z,0.40
2023-01-27T05:19:17.801Z,0.30
2023-01-27T05:21:44.668Z,0.30
2023-01-27T05:24:11.890Z,0.40
2023-01-27T05:26:38.850Z,0.73
2023-01-27T05:29:05.783Z,0.45
2023-01-27T05:31:32.788Z,0.68
2023-01-27T05:34:01.440Z,0.40
2023-01-27T05:36:29.318Z,0.80
2023-01-27T05:38:57.741Z,0.50
2023-01-27T05:41:25.031Z,0.43
2023-01-27T05:43:54.091Z,0.30
2023-01-27T05:46:26.502Z,0.30
2023-01-27T05:48:55.985Z,0.40
2023-01-27T05:51:25.022Z,0.40
2023-01-27T05:53:52.726Z,0.73
2023-01-27T05:56:20.327Z,0.20
2023-01-27T05:58:47.520Z,0.32
2023-01-27T06:01:18.589Z,0.30
2023-01-27T06:03:46.495Z,0.30
2023-01-27T06:06:15.221Z,0.50
2023-01-27T06:08:42.793Z,0.10
2023-01-27T06:11:10.042Z,0.70
2023-01-27T06:13:39.061Z,1.40
2023-01-27T06:16:09.234Z,0.47
2023-01-27T06:18:37.271Z,0.30
2023-01-27T06:21:06.352Z,0.40
2023-01-27T06:23:33.572Z,0.57
2023-01-27T06:26:13.012Z,0.30
2023-01-27T06:28:40.031Z,0.20
2023-01-27T06:31:09.415Z,0.38
2023-01-27T06:33:36.887Z,0.75
2023-01-27T06:36:06.600Z,0.20
2023-01-27T06:38:34.032Z,0.40
2023-01-27T06:41:01.315Z,0.38
2023-01-27T06:43:28.335Z,0.65
2023-01-27T06:45:57.634Z,0.30
2023-01-27T06:48:25.644Z,0.30
2023-01-27T06:50:56.688Z,0.20
2023-01-27T06:53:24.300Z,0.10
2023-01-27T06:55:58.883Z,0.22
2023-01-27T06:58:25.923Z,0.40
2023-01-27T07:00:53.131Z,0.50
2023-01-27T07:03:20.275Z,0.60
2023-01-27T07:05:47.220Z,0.55
2023-01-27T07:08:14.193Z,0.40
2023-01-27T07:10:41.146Z,0.40
2023-01-27T07:13:12.632Z,0.75
2023-01-27T07:15:39.876Z,0.40
2023-01-27T07:18:07.193Z,0.60
2023-01-27T07:20:34.543Z,0.30
2023-01-27T07:23:03.736Z,0.43
2023-01-27T07:25:31.845Z,0.60
2023-01-27T07:27:59.574Z,0.40
2023-01-27T07:30:27.419Z,0.40
2023-01-27T07:32:55.459Z,0.63
2023-01-27T07:35:23.522Z,0.70
2023-01-27T07:37:50.472Z,0.32
2023-01-27T07:40:18.500Z,0.50
2023-01-27T07:42:45.465Z,0.47
2023-01-27T07:45:12.470Z,0.75
2023-01-27T07:47:40.090Z,0.68
2023-01-27T07:50:07.772Z,0.60
2023-01-27T07:52:34.766Z,1.02
2023-01-27T07:55:01.800Z,0.57
2023-01-27T07:57:28.736Z,0.50
2023-01-27T07:59:56.771Z,0.70
2023-01-27T08:02:24.595Z,0.40
2023-01-27T08:04:53.534Z,0.60
2023-01-27T08:07:21.260Z,0.95
2023-01-27T08:09:48.203Z,1.08
2023-01-27T08:12:15.534Z,1.20
2023-01-27T08:14:42.544Z,3.03
2023-01-27T08:17:09.531Z,1.52
2023-01-27T08:19:36.431Z,0.80
2023-01-27T08:22:03.369Z,0.73
2023-01-27T08:24:30.327Z,0.60
2023-01-27T08:26:57.551Z,1.98
2023-01-27T08:29:24.911Z,0.43
2023-01-27T08:31:51.872Z,0.30
2023-01-27T08:34:18.973Z,1.10
2023-01-27T08:36:45.885Z,0.60
2023-01-27T08:39:13.110Z,1.33
2023-01-27T08:41:40.113Z,1.17
2023-01-27T08:44:07.293Z,1.27
2023-01-27T08:46:34.400Z,0.85
2023-01-27T08:49:01.523Z,0.80
2023-01-27T08:51:28.972Z,0.90
2023-01-27T08:53:55.944Z,0.60
2023-01-27T08:56:23.828Z,0.90
2023-01-27T08:58:52.506Z,1.17
2023-01-27T09:01:20.924Z,1.30
2023-01-27T09:03:47.975Z,1.05
2023-01-27T09:06:16.070Z,1.50
2023-01-27T09:08:44.192Z,1.73
2023-01-27T09:11:16.666Z,1.20
2023-01-27T09:13:44.166Z,0.90
2023-01-27T09:16:11.163Z,0.50
2023-01-27T09:18:38.227Z,0.57
2023-01-27T09:21:06.154Z,0.60
2023-01-27T09:23:34.408Z,0.90
2023-01-27T09:26:01.433Z,0.60
2023-01-27T09:28:28.515Z,0.57
2023-01-27T09:30:59.485Z,0.40
2023-01-27T09:33:27.089Z,0.45
2023-01-27T09:36:00.695Z,0.63
2023-01-27T09:38:33.102Z,0.90
2023-01-27T09:41:14.831Z,0.80
2023-01-27T09:44:17.396Z,0.60
2023-01-27T09:46:52.884Z,0.57
2023-01-27T09:49:28.707Z,0.30
2023-01-27T09:52:14.116Z,0.70
2023-01-27T09:54:52.909Z,1.13
2023-01-27T09:57:28.569Z,0.60
2023-01-27T10:00:13.783Z,0.52
2023-01-27T10:02:53.284Z,1.42
2023-01-27T10:05:48.070Z,0.90
2023-01-27T10:08:28.830Z,1.08
2023-01-27T10:10:58.462Z,0.93
2023-01-27T10:13:51.511Z,1.00
2023-01-27T10:16:54.237Z,0.70
2023-01-27T10:19:41.935Z,0.88
2023-01-27T10:22:15.014Z,1.27
2023-01-27T10:25:09.229Z,0.60
2023-01-27T10:27:37.763Z,0.95
2023-01-27T10:30:16.008Z,0.50
2023-01-27T10:32:58.816Z,0.63
2023-01-27T10:35:53.553Z,0.75
2023-01-27T10:38:40.247Z,1.10
2023-01-27T10:41:27.717Z,0.50
2023-01-27T10:44:06.623Z,0.85
2023-01-27T10:46:51.606Z,0.43
2023-01-27T10:49:33.047Z,0.90
2023-01-27T10:52:13.478Z,0.65
2023-01-27T10:55:13.442Z,0.73
2023-01-27T10:57:55.216Z,1.50
2023-01-27T11:03:45.954Z,0.88
2023-01-27T11:06:17.827Z,0.95
2023-01-27T11:08:55.936Z,0.93
2023-01-27T11:11:43.654Z,0.80
2023-01-27T11:14:17.232Z,0.93
2023-01-27T11:16:52.464Z,1.08
2023-01-27T11:19:38.393Z,1.00
2023-01-27T11:22:14.236Z,1.20
2023-01-27T11:25:02.666Z,0.82
2023-01-27T11:28:13.534Z,0.60
2023-01-27T11:31:01.518Z,1.45
2023-01-27T11:34:06.414Z,1.05
2023-01-27T11:36:36.753Z,0.77
2023-01-27T11:39:06.635Z,0.52
2023-01-27T11:41:40.001Z,0.63
2023-01-27T11:44:19.390Z,0.70
2023-01-27T11:46:48.360Z,0.60
2023-01-27T11:49:30.984Z,0.90
2023-01-27T11:52:06.168Z,0.50
2023-01-27T11:55:10.386Z,0.50
2023-01-27T11:57:42.210Z,0.57
2023-01-27T12:00:12.719Z,0.52
2023-01-27T12:02:46.747Z,0.30
2023-01-27T12:05:27.213Z,0.17
2023-01-27T12:08:02.551Z,0.20
2023-01-27T12:10:44.767Z,0.30
2023-01-27T12:13:20.367Z,0.00
2023-01-27T12:16:09.453Z,0.75
2023-01-27T12:18:50.041Z,0.43
2023-01-27T12:21:18.498Z,20.48
2023-01-27T12:23:56.136Z,3.03
2023-01-27T12:26:36.927Z,1.95
2023-01-27T12:29:08.284Z,2.40
2023-01-27T12:31:45.338Z,2.97
2023-01-27T12:34:33.201Z,2.08
2023-01-27T12:37:02.098Z,1.45
2023-01-27T12:39:49.264Z,1.00
2023-01-27T12:42:36.296Z,0.60
2023-01-27T12:45:38.296Z,0.57
2023-01-27T12:48:13.944Z,0.70
2023-01-27T12:50:42.388Z,0.30
2023-01-27T12:53:20.190Z,0.70
2023-01-27T12:55:57.441Z,1.15
2023-01-27T12:58:41.249Z,0.80
2023-01-27T13:01:25.653Z,0.60
2023-01-27T13:03:59.108Z,0.60
2023-01-27T13:06:42.611Z,0.75
2023-01-27T13:09:33.883Z,0.70
2023-01-27T13:12:20.678Z,0.70
2023-01-27T13:17:36.044Z,0.75
2023-01-27T13:20:19.489Z,0.95
2023-01-27T13:22:54.716Z,2.35
2023-01-27T13:25:26.853Z,0.77
2023-01-27T13:27:58.128Z,1.15
2023-01-27T13:30:30.321Z,0.70
2023-01-27T13:33:04.305Z,0.80
2023-01-27T13:35:44.894Z,1.10
2023-01-27T13:38:14.790Z,1.13
2023-01-27T13:40:48.561Z,1.60
2023-01-27T13:43:31.746Z,1.33
2023-01-27T13:46:44.864Z,1.38
2023-01-27T13:49:22.395Z,1.17
2023-01-27T13:51:49.302Z,1.23
2023-01-27T13:54:16.262Z,1.45
2023-01-27T13:57:17.056Z,1.30
2023-01-27T13:59:55.822Z,1.17
2023-01-27T14:02:22.688Z,1.98
2023-01-27T14:05:04.430Z,1.52
2023-01-27T14:07:44.030Z,1.20
2023-01-27T14:10:17.115Z,1.85
2023-01-27T14:12:47.068Z,1.25
2023-01-27T14:15:21.980Z,1.08
2023-01-27T14:18:15.433Z,1.10
2023-01-27T14:21:00.018Z,1.20
2023-01-27T14:23:32.990Z,0.88
2023-01-27T14:26:17.254Z,0.57
2023-01-27T14:29:09.033Z,0.80
2023-01-27T14:32:04.885Z,0.65
2023-01-27T14:35:18.643Z,1.35
2023-01-27T14:37:52.632Z,0.93
2023-01-27T14:40:50.756Z,0.55
2023-01-27T14:43:46.758Z,0.73
2023-01-27T14:46:32.190Z,2.17
2023-01-27T14:49:24.064Z,1.30
2023-01-27T14:51:55.625Z,0.70
2023-01-27T14:54:58.213Z,0.68
2023-01-27T14:57:36.551Z,0.57
2023-01-27T15:00:32.568Z,0.65
2023-01-27T15:03:14.817Z,1.75
2023-01-27T15:05:57.385Z,1.60
2023-01-27T15:08:36.215Z,1.55
2023-01-27T15:11:36.331Z,2.42
2023-01-27T15:14:12.356Z,1.50
2023-01-27T15:17:17.650Z,2.22
2023-01-27T15:19:52.285Z,3.35
2023-01-27T15:22:31.191Z,3.65
2023-01-27T15:25:13.433Z,2.65
2023-01-27T15:27:41.245Z,1.80
2023-01-27T15:30:31.557Z,2.20
2023-01-27T15:32:58.573Z,1.52
2023-01-27T15:35:26.430Z,1.58
2023-01-27T15:38:05.309Z,1.17
2023-01-27T15:41:09.111Z,1.35
2023-01-27T15:43:44.295Z,1.08
2023-01-27T15:46:29.193Z,1.13
2023-01-27T15:48:57.507Z,1.10
2023-01-27T15:51:24.953Z,1.65
2023-01-27T15:53:56.461Z,2.13
2023-01-27T15:56:53.777Z,2.08
2023-01-27T16:02:15.910Z,1.45
2023-01-27T16:04:43.836Z,2.10
2023-01-27T16:07:28.549Z,1.80
2023-01-27T16:09:56.726Z,1.60
2023-01-27T16:12:28.591Z,1.98
2023-01-27T16:15:01.632Z,1.40
2023-01-27T16:17:34.455Z,1.50
2023-01-27T16:20:15.684Z,4.13
2023-01-27T16:22:44.385Z,2.50
2023-01-27T16:25:27.051Z,2.10
2023-01-27T16:28:28.961Z,2.05
2023-01-27T16:30:55.861Z,1.70
2023-01-27T16:33:25.020Z,1.80
2023-01-27T16:36:05.109Z,1.90
2023-01-27T16:38:43.690Z,2.95
2023-01-27T16:41:22.446Z,3.28
2023-01-27T16:44:02.888Z,2.47
2023-01-27T16:46:45.403Z,3.90
2023-01-27T16:49:48.786Z,2.58
2023-01-27T16:52:35.893Z,2.80
2023-01-27T16:55:24.634Z,5.75
2023-01-27T16:57:55.557Z,6.15
2023-01-27T17:00:26.632Z,10.77
2023-01-27T17:02:56.170Z,10.52
2023-01-27T17:05:23.534Z,8.45
2023-01-27T17:08:15.914Z,11.75
2023-01-27T17:10:56.730Z,12.93
2023-01-27T17:13:33.154Z,5.82
2023-01-27T17:18:30.100Z,5.72
2023-01-27T17:20:58.696Z,8.25
2023-01-27T17:23:37.767Z,5.75
2023-01-27T17:26:14.858Z,7.30
2023-01-27T17:28:44.220Z,4.70
2023-01-27T17:31:19.088Z,4.57
2023-01-27T17:33:48.686Z,5.05
2023-01-27T17:36:15.939Z,4.95
2023-01-27T17:38:47.660Z,4.03
2023-01-27T17:41:26.314Z,5.35
2023-01-27T17:43:54.097Z,4.30
2023-01-27T17:46:26.758Z,3.95
2023-01-27T17:49:15.891Z,4.13
2023-01-27T17:51:51.288Z,5.80
2023-01-27T17:54:41.688Z,4.23
2023-01-27T17:57:26.495Z,5.50
2023-01-27T17:59:57.449Z,2.80
2023-01-27T18:02:36.447Z,3.13
2023-01-27T18:05:15.741Z,6.50
2023-01-27T18:07:42.793Z,3.67
2023-01-27T18:10:33.812Z,6.35
2023-01-27T18:13:16.049Z,4.40
2023-01-27T18:16:13.022Z,3.72
2023-01-27T18:18:39.981Z,3.10
2023-01-27T18:21:19.352Z,3.85
2023-01-27T18:23:55.784Z,3.25
2023-01-27T18:26:28.401Z,2.53
2023-01-27T18:28:59.845Z,2.70
2023-01-27T18:31:32.526Z,2.95
2023-01-27T18:34:20.089Z,2.35
2023-01-27T18:36:53.853Z,2.13
2023-01-27T18:39:40.039Z,2.05
2023-01-27T18:42:36.324Z,3.45
2023-01-27T18:45:03.203Z,2.45
2023-01-27T18:47:33.654Z,2.63
2023-01-27T18:50:21.869Z,2.88
2023-01-27T18:52:50.470Z,5.65
2023-01-27T18:55:30.072Z,7.75
2023-01-27T18:57:59.329Z,5.18
2023-01-27T19:00:30.308Z,5.03
2023-01-27T19:03:01.205Z,4.90
2023-01-27T19:05:36.208Z,3.88
2023-01-27T19:08:03.801Z,3.97
2023-01-27T19:10:33.943Z,4.47
2023-01-27T19:13:02.763Z,5.53
2023-01-27T19:15:37.665Z,4.03
2023-01-27T19:18:15.088Z,4.30
2023-01-27T19:20:42.049Z,3.53
2023-01-27T19:23:13.906Z,3.85
2023-01-27T19:25:41.267Z,2.92
2023-01-27T19:28:17.182Z,2.85
2023-01-27T19:30:45.083Z,2.90
2023-01-27T19:33:21.944Z,2.92
2023-01-27T19:35:52.201Z,4.18
2023-01-27T19:38:19.170Z,2.60
2023-01-27T19:40:46.072Z,2.58
2023-01-27T19:43:14.669Z,8.20
2023-01-27T19:45:43.050Z,6.03
2023-01-27T19:48:22.373Z,5.07
2023-01-27T19:50:50.951Z,5.22
2023-01-27T19:53:19.699Z,5.18
2023-01-27T19:55:48.375Z,3.22
2023-01-27T19:58:27.457Z,3.08
2023-01-27T20:00:55.504Z,2.72
2023-01-27T20:03:23.536Z,2.85
2023-01-27T20:05:50.515Z,3.28
2023-01-27T20:08:19.686Z,3.13
2023-01-27T20:10:47.008Z,3.05
2023-01-27T20:13:16.591Z,4.47
2023-01-27T20:15:43.780Z,6.95
2023-01-27T20:18:15.871Z,4.13
2023-01-27T20:20:44.360Z,5.22
2023-01-27T20:23:16.029Z,4.90
2023-01-27T20:25:43.354Z,11.45
2023-01-27T20:28:12.288Z,26.80
2023-01-27T20:30:39.260Z,13.35
2023-01-27T20:33:07.782Z,12.73
2023-01-27T20:35:34.719Z,8.55
2023-01-27T20:38:03.350Z,8.10
2023-01-27T20:40:30.698Z,9.05
2023-01-27T20:42:57.712Z,11.57
2023-01-27T20:45:24.647Z,12.98
2023-01-27T20:47:52.978Z,8.27
2023-01-27T20:50:23.781Z,11.82
2023-01-27T20:52:52.200Z,8.55
2023-01-27T20:55:22.568Z,7.20
2023-01-27T20:57:50.196Z,6.40
2023-01-27T21:00:21.959Z,5.30
2023-01-27T21:02:49.139Z,5.43
2023-01-27T21:05:16.714Z,3.67
2023-01-27T21:07:43.870Z,4.25
2023-01-27T21:10:11.240Z,5.90
2023-01-27T21:12:38.362Z,4.10
2023-01-27T21:15:09.816Z,4.22
2023-01-27T21:17:37.477Z,4.70
2023-01-27T21:20:05.576Z,6.10
2023-01-27T21:22:34.748Z,3.72
2023-01-27T21:25:01.870Z,3.35
2023-01-27T21:27:29.001Z,3.33
2023-01-27T21:29:56.012Z,3.60
2023-01-27T21:32:23.074Z,3.60
2023-01-27T21:34:50.074Z,3.92
2023-01-27T21:37:17.071Z,2.97
2023-01-27T21:39:44.366Z,4.03
2023-01-27T21:42:14.137Z,4.78
2023-01-27T21:44:59.436Z,3.70
2023-01-27T21:47:26.580Z,3.72
2023-01-27T21:50:02.805Z,3.58
2023-01-27T21:52:48.531Z,2.97
2023-01-27T21:55:21.077Z,2.40
2023-01-27T21:57:50.902Z,2.65
2023-01-27T22:00:22.588Z,2.70
2023-01-27T22:02:57.928Z,2.30
2023-01-27T22:05:26.404Z,1.83
2023-01-27T22:07:53.831Z,2.28
2023-01-27T22:10:29.196Z,2.58
2023-01-27T22:13:03.701Z,2.10
2023-01-27T22:15:31.216Z,2.35
2023-01-27T22:17:58.747Z,1.85
2023-01-27T22:20:26.975Z,2.22
2023-01-27T22:22:54.266Z,1.80
2023-01-27T22:25:21.490Z,1.83
2023-01-27T22:27:48.599Z,2.55
2023-01-27T22:30:20.186Z,2.95
2023-01-27T22:32:48.104Z,1.95
2023-01-27T22:35:17.085Z,2.00
2023-01-27T22:37:44.875Z,2.05
2023-01-27T22:40:13.058Z,1.60
2023-01-27T22:42:40.267Z,1.63
2023-01-27T22:45:09.328Z,1.63
2023-01-27T22:47:36.520Z,1.25
2023-01-27T22:50:03.985Z,5.03
2023-01-27T22:52:31.004Z,3.00
2023-01-27T22:54:58.043Z,2.05
2023-01-27T22:57:30.293Z,1.60
2023-01-27T22:59:58.648Z,1.40
2023-01-27T23:02:27.940Z,1.17
2023-01-27T23:04:55.843Z,1.35
2023-01-27T23:07:22.815Z,1.23
2023-01-27T23:09:49.750Z,1.60
2023-01-27T23:12:16.757Z,0.80
2023-01-27T23:14:43.693Z,1.20
2023-01-27T23:17:10.573Z,1.17
2023-01-27T23:19:37.520Z,1.50
2023-01-27T23:22:04.463Z,1.38
2023-01-27T23:24:31.498Z,1.50
2023-01-27T23:26:58.415Z,1.38
2023-01-27T23:29:26.833Z,1.77
2023-01-27T23:31:55.396Z,1.13
2023-01-27T23:34:22.454Z,1.55
2023-01-27T23:36:49.534Z,1.58
2023-01-27T23:39:16.624Z,1.60
2023-01-27T23:41:43.753Z,1.38
2023-01-27T23:44:12.839Z,1.73
2023-01-27T23:46:40.425Z,1.60
2023-01-27T23:49:08.098Z,2.10
2023-01-27T23:51:35.123Z,1.25
2023-01-27T23:54:03.103Z,1.33
2023-01-27T23:56:30.100Z,1.30
2023-01-27T23:58:57.053Z,1.60
